Time;durP1;ratioP1;P1;durP2;ratioP2;P2;SDS_P1;SDS_P2;PMS_P1;PMS_P2;Temp;Humidity;BMP_temperature;BMP_pressure;BME280_temperature;BME280_humidity;BME280_pressure;Samples;Min_cycle;Max_cycle;Signal;HPM_P1;HPM_P2
2023/07/19 00:01:04;;;;;;;4.28;1.65;;;;;;;;;;4997345;28;20049;-74
2023/07/19 00:03:31;;;;;;;2.17;1.48;;;;;;;;;;4976220;28;20031;-75
2023/07/19 00:05:57;;;;;;;2.45;1.40;;;;;;;;;;4988983;28;20030;-75
2023/07/19 00:08:23;;;;;;;1.98;1.30;;;;;;;;;;4989997;28;20173;-75
2023/07/19 00:10:49;;;;;;;3.38;1.50;;;;;;;;;;4983756;28;20052;-74
2023/07/19 00:13:15;;;;;;;3.20;1.70;;;;;;;;;;4975448;28;20474;-75
2023/07/19 00:15:41;;;;;;;2.75;1.45;;;;;;;;;;4982267;28;20063;-74
2023/07/19 00:18:07;;;;;;;2.25;1.35;;;;;;;;;;4993031;28;20054;-74
2023/07/19 00:20:33;;;;;;;4.18;1.38;;;;;;;;;;4980154;28;20119;-74
2023/07/19 00:22:59;;;;;;;4.78;1.55;;;;;;;;;;4973484;28;20035;-74
2023/07/19 00:25:25;;;;;;;7.85;1.80;;;;;;;;;;4980680;28;20122;-74
2023/07/19 00:27:51;;;;;;;4.63;2.10;;;;;;;;;;4987516;28;20113;-74
2023/07/19 00:30:17;;;;;;;4.72;1.60;;;;;;;;;;4991972;28;20381;-74
2023/07/19 00:32:43;;;;;;;6.38;2.00;;;;;;;;;;5000029;28;20121;-73
2023/07/19 00:35:10;;;;;;;4.13;2.30;;;;;;;;;;4980921;28;20471;-74
2023/07/19 00:37:36;;;;;;;2.38;2.00;;;;;;;;;;4993446;28;20419;-74
2023/07/19 00:40:03;;;;;;;3.05;2.03;;;;;;;;;;4993658;28;20043;-74
2023/07/19 00:42:30;;;;;;;3.65;2.20;;;;;;;;;;4984838;28;20116;-74
2023/07/19 00:44:56;;;;;;;4.13;2.22;;;;;;;;;;4985200;28;20089;-74
2023/07/19 00:47:22;;;;;;;4.50;2.55;;;;;;;;;;4990391;28;20058;-73
2023/07/19 00:49:49;;;;;;;3.92;2.17;;;;;;;;;;4990549;28;20427;-74
2023/07/19 00:52:15;;;;;;;4.30;2.28;;;;;;;;;;4990632;28;20403;-74
2023/07/19 00:54:41;;;;;;;4.28;2.63;;;;;;;;;;4985734;28;20473;-74
2023/07/19 00:57:07;;;;;;;2.70;2.05;;;;;;;;;;4989289;28;20408;-73
2023/07/19 00:59:34;;;;;;;6.68;2.75;;;;;;;;;;4988192;28;20599;-73
2023/07/19 01:02:00;;;;;;;3.70;2.47;;;;;;;;;;4988060;28;20507;-74
2023/07/19 01:04:27;;;;;;;5.85;2.53;;;;;;;;;;4976475;28;20025;-74
2023/07/19 01:06:53;;;;;;;6.55;2.30;;;;;;;;;;4984240;28;20027;-74
2023/07/19 01:09:19;;;;;;;6.70;3.20;;;;;;;;;;4991526;28;20121;-74
2023/07/19 01:11:45;;;;;;;12.85;2.65;;;;;;;;;;4990141;28;20164;-74
2023/07/19 01:14:12;;;;;;;3.28;2.53;;;;;;;;;;4988333;28;20066;-74
2023/07/19 01:16:38;;;;;;;10.32;2.75;;;;;;;;;;4987670;28;20542;-74
2023/07/19 01:19:04;;;;;;;5.85;2.45;;;;;;;;;;4988847;28;20110;-73
2023/07/19 01:21:30;;;;;;;3.38;2.28;;;;;;;;;;4991054;28;20030;-74
2023/07/19 01:23:57;;;;;;;5.15;3.63;;;;;;;;;;4979770;28;20049;-74
2023/07/19 01:26:23;;;;;;;6.75;2.33;;;;;;;;;;4973124;28;20547;-74
2023/07/19 01:28:49;;;;;;;5.47;2.50;;;;;;;;;;4988919;28;20030;-74
2023/07/19 01:31:15;;;;;;;6.18;2.67;;;;;;;;;;4991593;28;20045;-73
2023/07/19 01:33:41;;;;;;;3.92;2.83;;;;;;;;;;4977739;28;20034;-74
2023/07/19 01:36:07;;;;;;;4.80;3.00;;;;;;;;;;4986098;28;20117;-74
2023/07/19 01:38:34;;;;;;;4.38;3.03;;;;;;;;;;4990387;28;20062;-75
2023/07/19 01:41:01;;;;;;;7.68;3.20;;;;;;;;;;4982211;28;20050;-74
2023/07/19 01:43:27;;;;;;;7.30;3.08;;;;;;;;;;4984968;28;20041;-74
2023/07/19 01:45:53;;;;;;;4.88;2.88;;;;;;;;;;4987819;28;20026;-74
2023/07/19 01:48:19;;;;;;;4.63;3.30;;;;;;;;;;5004180;28;20061;-73
2023/07/19 01:50:46;;;;;;;4.72;3.38;;;;;;;;;;4989955;28;20034;-73
2023/07/19 01:53:12;;;;;;;8.98;3.45;;;;;;;;;;4989466;28;20034;-74
2023/07/19 01:55:39;;;;;;;4.35;3.03;;;;;;;;;;4970211;28;20062;-74
2023/07/19 01:58:05;;;;;;;3.42;2.90;;;;;;;;;;4979330;28;20480;-74
2023/07/19 02:00:31;;;;;;;5.00;3.10;;;;;;;;;;4989008;28;20139;-73
2023/07/19 02:02:57;;;;;;;3.50;2.72;;;;;;;;;;4984977;28;20031;-73
2023/07/19 02:05:23;;;;;;;8.25;3.22;;;;;;;;;;4990277;28;20042;-73
2023/07/19 02:07:49;;;;;;;5.60;3.13;;;;;;;;;;4989636;28;20028;-73
2023/07/19 02:10:15;;;;;;;7.38;3.67;;;;;;;;;;4986340;28;20063;-73
2023/07/19 02:12:41;;;;;;;5.95;3.42;;;;;;;;;;4987446;28;20502;-73
2023/07/19 02:15:08;;;;;;;6.57;3.78;;;;;;;;;;4984516;28;20370;-73
2023/07/19 02:17:34;;;;;;;5.00;3.58;;;;;;;;;;4985958;28;20026;-73
2023/07/19 02:20:00;;;;;;;5.50;3.95;;;;;;;;;;4983731;28;20041;-73
2023/07/19 02:22:26;;;;;;;6.90;4.28;;;;;;;;;;4998222;28;20403;-72
2023/07/19 02:24:52;;;;;;;5.10;4.60;;;;;;;;;;4991011;28;20033;-72
2023/07/19 02:27:18;;;;;;;7.97;4.60;;;;;;;;;;4988558;28;20105;-73
2023/07/19 02:29:44;;;;;;;5.18;3.92;;;;;;;;;;4983346;28;20058;-72
2023/07/19 02:32:10;;;;;;;8.82;4.50;;;;;;;;;;4986112;28;20074;-73
2023/07/19 02:34:36;;;;;;;6.82;4.70;;;;;;;;;;4980695;28;20073;-73
2023/07/19 02:37:02;;;;;;;10.05;4.90;;;;;;;;;;4973229;28;20039;-73
2023/07/19 02:39:29;;;;;;;8.55;5.05;;;;;;;;;;4981891;28;20066;-73
2023/07/19 02:41:57;;;;;;;9.45;4.85;;;;;;;;;;4987047;28;20073;-73
2023/07/19 02:44:23;;;;;;;6.68;5.30;;;;;;;;;;4988280;28;20058;-73
2023/07/19 02:46:49;;;;;;;8.15;4.63;;;;;;;;;;5002045;28;20046;-73
2023/07/19 02:49:15;;;;;;;7.80;5.22;;;;;;;;;;4988492;28;20022;-73
2023/07/19 02:51:41;;;;;;;7.75;5.20;;;;;;;;;;4978626;28;20070;-73
2023/07/19 02:54:07;;;;;;;9.00;5.10;;;;;;;;;;4990366;28;20488;-73
2023/07/19 02:56:33;;;;;;;8.90;5.00;;;;;;;;;;4978115;28;20038;-73
2023/07/19 02:58:59;;;;;;;5.70;5.13;;;;;;;;;;4971236;28;20448;-73
2023/07/19 03:01:25;;;;;;;10.32;5.40;;;;;;;;;;4986532;28;20129;-73
2023/07/19 03:03:51;;;;;;;9.35;5.13;;;;;;;;;;4985602;28;20118;-73
2023/07/19 03:06:18;;;;;;;7.30;5.28;;;;;;;;;;4987167;28;20027;-74
2023/07/19 03:08:44;;;;;;;11.95;5.35;;;;;;;;;;4985440;28;20097;-73
2023/07/19 03:11:10;;;;;;;6.10;5.47;;;;;;;;;;4993501;28;20046;-73
2023/07/19 03:13:36;;;;;;;7.03;5.90;;;;;;;;;;5000468;28;20093;-73
2023/07/19 03:16:02;;;;;;;10.10;5.32;;;;;;;;;;4993813;28;20050;-73
2023/07/19 03:18:28;;;;;;;8.35;5.30;;;;;;;;;;4990573;28;20487;-73
2023/07/19 03:20:59;;;;;;;7.68;5.25;;;;;;;;;;4980395;28;20321;-73
2023/07/19 03:23:26;;;;;;;9.13;5.10;;;;;;;;;;4980768;28;20026;-73
2023/07/19 03:25:53;;;;;;;7.53;5.45;;;;;;;;;;4992849;28;20161;-73
2023/07/19 03:28:19;;;;;;;7.70;5.45;;;;;;;;;;4993761;28;20435;-73
2023/07/19 03:30:45;;;;;;;8.80;5.65;;;;;;;;;;4993979;28;20043;-73
2023/07/19 03:33:11;;;;;;;7.15;5.53;;;;;;;;;;4986922;28;20042;-73
2023/07/19 03:35:37;;;;;;;7.28;6.05;;;;;;;;;;4993473;28;20080;-74
2023/07/19 03:38:03;;;;;;;7.70;5.80;;;;;;;;;;4992049;28;20050;-73
2023/07/19 03:40:29;;;;;;;9.30;6.00;;;;;;;;;;4980651;28;20995;-72
2023/07/19 03:42:55;;;;;;;8.38;5.57;;;;;;;;;;4988510;28;20074;-73
2023/07/19 03:45:21;;;;;;;8.25;5.57;;;;;;;;;;4978815;28;20042;-73
2023/07/19 03:47:47;;;;;;;10.80;6.50;;;;;;;;;;4992396;28;20097;-74
2023/07/19 03:50:13;;;;;;;8.32;5.90;;;;;;;;;;4988623;28;20039;-73
2023/07/19 03:52:39;;;;;;;6.88;5.25;;;;;;;;;;4991499;28;20388;-73
2023/07/19 03:55:06;;;;;;;6.97;5.50;;;;;;;;;;4988551;28;20057;-73
2023/07/19 03:57:32;;;;;;;14.63;6.05;;;;;;;;;;4984892;28;20038;-73
2023/07/19 03:59:58;;;;;;;10.40;6.15;;;;;;;;;;4990765;28;20033;-73
2023/07/19 04:02:24;;;;;;;9.77;6.18;;;;;;;;;;4987090;28;20046;-72
2023/07/19 04:04:50;;;;;;;7.80;6.13;;;;;;;;;;4991024;28;20467;-73
2023/07/19 04:07:16;;;;;;;10.80;6.15;;;;;;;;;;4991618;28;20030;-74
2023/07/19 04:09:44;;;;;;;8.32;5.40;;;;;;;;;;4993129;28;20054;-74
2023/07/19 04:12:10;;;;;;;11.25;6.57;;;;;;;;;;4989830;28;20045;-74
2023/07/19 04:14:36;;;;;;;6.53;5.60;;;;;;;;;;4985882;28;20555;-74
2023/07/19 04:17:02;;;;;;;10.73;6.97;;;;;;;;;;4984302;28;20523;-74
2023/07/19 04:19:28;;;;;;;8.13;6.22;;;;;;;;;;4986670;28;20030;-73
2023/07/19 04:21:54;;;;;;;11.52;6.18;;;;;;;;;;4974354;28;20034;-73
2023/07/19 04:24:20;;;;;;;10.82;6.22;;;;;;;;;;4981943;28;20384;-74
2023/07/19 04:26:46;;;;;;;10.82;6.28;;;;;;;;;;4983204;28;20481;-73
2023/07/19 04:29:12;;;;;;;9.35;6.00;;;;;;;;;;4981220;28;20037;-74
2023/07/19 04:31:38;;;;;;;10.13;6.35;;;;;;;;;;4983296;28;20424;-75
2023/07/19 04:34:04;;;;;;;10.63;6.55;;;;;;;;;;4981136;28;20401;-75
2023/07/19 04:36:30;;;;;;;10.13;6.55;;;;;;;;;;4980769;28;20034;-77
2023/07/19 04:38:56;;;;;;;9.60;5.82;;;;;;;;;;4987556;28;20034;-75
2023/07/19 04:41:22;;;;;;;10.90;5.53;;;;;;;;;;4983656;28;20130;-76
2023/07/19 04:43:49;;;;;;;10.60;6.28;;;;;;;;;;4971353;28;20049;-78
2023/07/19 04:46:18;;;;;;;9.68;5.68;;;;;;;;;;4986142;28;20511;-75
2023/07/19 04:48:44;;;;;;;9.85;5.88;;;;;;;;;;4982124;28;20042;-79
2023/07/19 04:51:10;;;;;;;9.30;6.03;;;;;;;;;;4981290;28;20077;-79
2023/07/19 04:53:36;;;;;;;23.20;6.63;;;;;;;;;;4987179;28;20030;-80
2023/07/19 04:56:02;;;;;;;11.80;5.40;;;;;;;;;;4984913;28;20414;-76
2023/07/19 04:58:28;;;;;;;8.38;5.53;;;;;;;;;;4983603;28;20476;-75
2023/07/19 05:00:54;;;;;;;11.88;5.68;;;;;;;;;;4984275;28;20042;-75
2023/07/19 05:03:21;;;;;;;16.13;6.00;;;;;;;;;;4982696;28;20038;-75
2023/07/19 05:05:47;;;;;;;10.98;4.82;;;;;;;;;;4980413;28;20149;-78
2023/07/19 05:08:14;;;;;;;27.25;16.60;;;;;;;;;;4981994;28;20471;-83
2023/07/19 05:10:40;;;;;;;11.10;6.10;;;;;;;;;;4988688;28;20039;-82
2023/07/19 05:13:06;;;;;;;12.02;6.20;;;;;;;;;;4990662;28;20065;-77
2023/07/19 05:15:33;;;;;;;9.93;5.10;;;;;;;;;;4990891;28;20121;-78
2023/07/19 05:18:00;;;;;;;9.40;4.95;;;;;;;;;;4979404;28;20029;-78
2023/07/19 05:20:26;;;;;;;9.15;5.05;;;;;;;;;;4985025;28;20032;-78
2023/07/19 05:22:52;;;;;;;13.98;5.10;;;;;;;;;;4977868;28;20500;-79
2023/07/19 05:25:18;;;;;;;6.18;3.47;;;;;;;;;;4959734;28;20499;-79
2023/07/19 05:27:44;;;;;;;5.35;3.78;;;;;;;;;;4978528;28;20029;-81
2023/07/19 05:30:11;;;;;;;8.98;4.68;;;;;;;;;;4993266;28;20039;-79
2023/07/19 05:32:37;;;;;;;6.70;3.75;;;;;;;;;;4975927;28;20673;-80
2023/07/19 05:35:03;;;;;;;11.45;4.15;;;;;;;;;;4978530;28;20034;-80
2023/07/19 05:37:29;;;;;;;8.27;3.65;;;;;;;;;;4980617;28;20049;-80
2023/07/19 05:39:55;;;;;;;5.53;3.60;;;;;;;;;;4977384;28;20170;-80
2023/07/19 05:42:21;;;;;;;6.90;3.53;;;;;;;;;;4976550;28;20039;-81
2023/07/19 05:44:47;;;;;;;7.68;3.90;;;;;;;;;;4961752;28;20113;-81
2023/07/19 05:47:13;;;;;;;8.35;4.13;;;;;;;;;;4974365;28;20640;-78
2023/07/19 05:49:40;;;;;;;9.02;5.10;;;;;;;;;;4982364;28;20064;-76
2023/07/19 05:52:07;;;;;;;9.07;4.32;;;;;;;;;;4983758;28;20124;-76
2023/07/19 05:54:33;;;;;;;14.35;4.60;;;;;;;;;;4990232;28;20045;-77
2023/07/19 05:56:59;;;;;;;11.90;4.57;;;;;;;;;;4981782;28;20045;-74
2023/07/19 05:59:25;;;;;;;8.23;3.38;;;;;;;;;;4976310;28;20026;-75
2023/07/19 06:01:51;;;;;;;7.95;3.38;;;;;;;;;;4973129;28;20041;-74
2023/07/19 06:04:17;;;;;;;6.60;3.05;;;;;;;;;;4979958;28;20039;-75
2023/07/19 06:06:44;;;;;;;8.27;3.70;;;;;;;;;;4985186;28;20039;-74
2023/07/19 06:09:10;;;;;;;8.98;4.70;;;;;;;;;;4987337;28;20125;-75
2023/07/19 06:11:36;;;;;;;8.32;4.30;;;;;;;;;;4986094;28;20109;-74
2023/07/19 06:14:02;;;;;;;10.23;3.95;;;;;;;;;;4979699;28;20419;-75
2023/07/19 06:16:28;;;;;;;11.18;4.35;;;;;;;;;;4985584;28;20051;-75
2023/07/19 06:18:54;;;;;;;7.60;4.07;;;;;;;;;;4982340;28;20394;-74
2023/07/19 06:21:20;;;;;;;7.00;3.70;;;;;;;;;;4984590;28;20575;-75
2023/07/19 06:23:46;;;;;;;10.32;4.00;;;;;;;;;;4983862;28;20117;-74
2023/07/19 06:26:13;;;;;;;5.95;3.20;;;;;;;;;;4983861;28;20041;-74
2023/07/19 06:28:39;;;;;;;6.65;3.92;;;;;;;;;;4985865;28;20104;-74
2023/07/19 06:31:05;;;;;;;9.70;3.85;;;;;;;;;;4987273;28;20044;-75
2023/07/19 06:33:31;;;;;;;5.85;3.70;;;;;;;;;;4986528;28;20130;-74
2023/07/19 06:35:58;;;;;;;7.38;3.60;;;;;;;;;;4981630;28;20042;-74
2023/07/19 06:38:25;;;;;;;5.65;3.47;;;;;;;;;;4977470;28;20034;-75
2023/07/19 06:40:51;;;;;;;8.23;3.83;;;;;;;;;;4985729;28;20382;-74
2023/07/19 06:43:17;;;;;;;8.73;3.78;;;;;;;;;;4991506;28;20041;-75
2023/07/19 06:45:46;;;;;;;10.68;3.38;;;;;;;;;;4998685;28;20034;-76
2023/07/19 06:48:12;;;;;;;5.43;3.60;;;;;;;;;;4992486;28;20031;-75
2023/07/19 06:50:38;;;;;;;5.63;3.38;;;;;;;;;;5008424;28;20385;-75
2023/07/19 06:53:04;;;;;;;7.43;3.63;;;;;;;;;;4979760;28;20117;-74
2023/07/19 06:55:30;;;;;;;9.40;2.90;;;;;;;;;;4981028;28;20045;-74
2023/07/19 06:57:56;;;;;;;6.47;2.78;;;;;;;;;;4987520;28;20026;-75
2023/07/19 07:00:22;;;;;;;8.05;3.40;;;;;;;;;;4993474;28;20030;-75
2023/07/19 07:02:48;;;;;;;6.43;2.58;;;;;;;;;;4987965;28;20136;-75
2023/07/19 07:05:14;;;;;;;4.03;2.67;;;;;;;;;;4976523;28;20463;-75
2023/07/19 07:07:41;;;;;;;5.95;2.20;;;;;;;;;;4983131;28;20045;-75
2023/07/19 07:10:09;;;;;;;4.10;1.70;;;;;;;;;;5009149;28;20026;-76
2023/07/19 07:12:35;;;;;;;6.38;2.10;;;;;;;;;;4990011;28;20034;-75
2023/07/19 07:15:02;;;;;;;3.47;1.85;;;;;;;;;;4987281;28;20261;-75
2023/07/19 07:17:28;;;;;;;5.07;1.90;;;;;;;;;;5006825;28;20431;-74
2023/07/19 07:19:54;;;;;;;3.90;1.80;;;;;;;;;;4994190;28;20384;-74
2023/07/19 07:22:20;;;;;;;4.65;1.73;;;;;;;;;;4985830;28;20035;-74
2023/07/19 07:24:46;;;;;;;6.95;2.15;;;;;;;;;;4989268;28;20031;-74
2023/07/19 07:27:12;;;;;;;4.53;1.33;;;;;;;;;;4981494;28;20039;-74
2023/07/19 07:29:41;;;;;;;3.67;1.40;;;;;;;;;;4986207;28;20404;-75
2023/07/19 07:32:08;;;;;;;4.70;1.35;;;;;;;;;;4999336;28;20042;-74
2023/07/19 07:34:34;;;;;;;3.70;1.00;;;;;;;;;;4974491;28;20113;-74
2023/07/19 07:37:00;;;;;;;4.57;1.23;;;;;;;;;;5001635;28;20034;-74
2023/07/19 07:39:26;;;;;;;3.42;1.05;;;;;;;;;;4992567;28;20041;-74
2023/07/19 07:41:52;;;;;;;2.22;0.98;;;;;;;;;;4993556;28;20042;-74
2023/07/19 07:44:18;;;;;;;2.33;0.80;;;;;;;;;;4989847;28;20041;-74
2023/07/19 07:46:44;;;;;;;4.10;1.40;;;;;;;;;;4995354;28;20038;-74
2023/07/19 07:49:11;;;;;;;4.40;0.88;;;;;;;;;;4988440;28;20046;-73
2023/07/19 07:51:37;;;;;;;2.33;1.05;;;;;;;;;;4988793;28;20038;-76
2023/07/19 07:54:03;;;;;;;2.72;1.10;;;;;;;;;;4986083;28;20038;-77
2023/07/19 07:56:29;;;;;;;4.50;1.45;;;;;;;;;;4985747;28;20033;-75
2023/07/19 07:58:56;;;;;;;3.22;1.10;;;;;;;;;;4983191;28;20495;-77
2023/07/19 08:01:22;;;;;;;4.32;1.13;;;;;;;;;;4985287;28;20035;-78
2023/07/19 08:03:48;;;;;;;2.05;1.00;;;;;;;;;;4980684;28;20030;-78
2023/07/19 08:06:14;;;;;;;2.50;0.77;;;;;;;;;;4985595;28;20096;-77
2023/07/19 08:08:40;;;;;;;5.38;2.50;;;;;;;;;;4984793;28;20439;-75
2023/07/19 08:11:06;;;;;;;3.28;1.70;;;;;;;;;;4979132;28;20042;-76
2023/07/19 08:13:33;;;;;;;4.68;2.97;;;;;;;;;;4987114;28;20380;-74
2023/07/19 08:15:59;;;;;;;1.95;0.80;;;;;;;;;;4987171;28;20463;-75
2023/07/19 08:18:25;;;;;;;2.10;1.17;;;;;;;;;;4980307;28;20041;-74
2023/07/19 08:20:52;;;;;;;2.83;0.80;;;;;;;;;;4985920;28;20117;-77
2023/07/19 08:23:18;;;;;;;28.15;14.98;;;;;;;;;;4980378;28;20034;-77
2023/07/19 08:25:44;;;;;;;3.17;1.15;;;;;;;;;;4991770;28;20033;-77
2023/07/19 08:28:10;;;;;;;2.22;1.48;;;;;;;;;;4986456;28;20506;-78
2023/07/19 08:30:36;;;;;;;1.90;0.80;;;;;;;;;;4977743;28;20038;-78
2023/07/19 08:33:08;;;;;;;3.10;0.90;;;;;;;;;;4992783;28;20101;-77
2023/07/19 08:35:34;;;;;;;1.95;0.75;;;;;;;;;;4990596;28;20053;-74
2023/07/19 08:38:00;;;;;;;2.30;0.90;;;;;;;;;;4991101;28;20467;-74
2023/07/19 08:40:31;;;;;;;4.10;1.27;;;;;;;;;;4986398;28;20093;-75
2023/07/19 08:42:57;;;;;;;1.02;0.73;;;;;;;;;;4993429;28;20433;-75
2023/07/19 08:45:24;;;;;;;1.63;0.93;;;;;;;;;;4982140;28;20096;-73
2023/07/19 08:47:50;;;;;;;3.03;0.90;;;;;;;;;;4988984;28;20090;-73
2023/07/19 08:50:17;;;;;;;3.10;1.05;;;;;;;;;;4987767;28;20029;-73
2023/07/19 08:52:43;;;;;;;2.85;1.00;;;;;;;;;;4990863;28;20034;-76
2023/07/19 08:55:09;;;;;;;3.30;0.85;;;;;;;;;;4984451;28;20035;-77
2023/07/19 08:57:45;;;;;;;3.10;0.98;;;;;;;;;;4986201;28;20035;-74
2023/07/19 09:00:12;;;;;;;2.33;1.02;;;;;;;;;;4979158;28;20499;-75
2023/07/19 09:02:38;;;;;;;3.00;1.33;;;;;;;;;;4979642;28;20046;-73
2023/07/19 09:05:27;;;;;;;7.97;2.22;;;;;;;;;;4989954;28;20116;-74
2023/07/19 09:07:53;;;;;;;4.72;1.45;;;;;;;;;;4976500;28;20066;-73
2023/07/19 09:10:19;;;;;;;4.55;1.20;;;;;;;;;;4989067;28;20072;-72
2023/07/19 09:12:46;;;;;;;6.78;1.30;;;;;;;;;;4989207;28;20076;-71
2023/07/19 09:15:13;;;;;;;3.38;1.20;;;;;;;;;;4999194;28;20110;-71
2023/07/19 09:17:43;;;;;;;4.40;1.00;;;;;;;;;;5006699;28;20521;-71
2023/07/19 09:20:09;;;;;;;2.42;1.40;;;;;;;;;;4981706;28;20457;-71
2023/07/19 09:22:39;;;;;;;8.50;1.42;;;;;;;;;;4973776;28;20125;-71
2023/07/19 09:25:06;;;;;;;3.67;1.20;;;;;;;;;;4991810;28;20057;-71
2023/07/19 09:27:32;;;;;;;6.78;0.90;;;;;;;;;;4982332;28;20023;-71
2023/07/19 09:29:58;;;;;;;5.97;0.95;;;;;;;;;;4979271;28;20393;-71
2023/07/19 09:32:25;;;;;;;5.35;1.30;;;;;;;;;;4988638;28;20045;-71
2023/07/19 09:34:55;;;;;;;3.72;1.00;;;;;;;;;;4990674;28;20030;-71
2023/07/19 09:37:22;;;;;;;2.72;1.00;;;;;;;;;;4988188;28;20041;-71
2023/07/19 09:39:48;;;;;;;4.68;1.20;;;;;;;;;;4978039;28;20034;-71
2023/07/19 09:42:14;;;;;;;4.68;0.90;;;;;;;;;;4988444;28;20038;-72
2023/07/19 09:44:40;;;;;;;6.22;1.63;;;;;;;;;;4975008;28;20054;-72
2023/07/19 09:47:10;;;;;;;3.97;1.33;;;;;;;;;;4998769;28;20034;-72
2023/07/19 09:49:36;;;;;;;3.53;1.00;;;;;;;;;;4978956;28;20141;-72
2023/07/19 09:52:03;;;;;;;2.45;0.85;;;;;;;;;;4977391;28;20125;-71
2023/07/19 09:54:31;;;;;;;2.92;0.98;;;;;;;;;;4977066;28;20101;-72
2023/07/19 09:56:58;;;;;;;3.13;1.15;;;;;;;;;;4977471;28;20026;-71
2023/07/19 09:59:34;;;;;;;5.03;0.82;;;;;;;;;;4989418;28;20100;-71
2023/07/19 10:02:01;;;;;;;2.58;1.10;;;;;;;;;;5006144;28;20077;-71
2023/07/19 10:04:28;;;;;;;3.90;1.02;;;;;;;;;;4985586;28;20030;-71
2023/07/19 10:07:04;;;;;;;5.70;1.27;;;;;;;;;;4988240;28;20034;-73
2023/07/19 10:09:30;;;;;;;3.28;0.95;;;;;;;;;;4980287;28;20030;-72
2023/07/19 10:12:01;;;;;;;6.03;1.13;;;;;;;;;;4984276;28;20507;-72
2023/07/19 10:14:27;;;;;;;4.47;1.45;;;;;;;;;;4988950;28;20050;-74
2023/07/19 10:17:00;;;;;;;3.47;1.30;;;;;;;;;;4991645;28;20033;-75
2023/07/19 10:19:26;;;;;;;3.83;1.33;;;;;;;;;;4982704;28;20320;-76
2023/07/19 10:22:03;;;;;;;3.67;1.15;;;;;;;;;;4989481;28;20038;-73
2023/07/19 10:24:29;;;;;;;4.07;1.00;;;;;;;;;;4990938;28;20038;-76
2023/07/19 10:26:55;;;;;;;3.30;0.77;;;;;;;;;;4986329;28;20101;-77
2023/07/19 10:29:25;;;;;;;3.83;1.10;;;;;;;;;;4989590;28;20033;-79
2023/07/19 10:31:51;;;;;;;6.28;1.73;;;;;;;;;;4988127;28;20372;-78
2023/07/19 10:34:17;;;;;;;4.50;1.20;;;;;;;;;;4990847;28;20037;-82
2023/07/19 10:36:47;;;;;;;6.88;1.30;;;;;;;;;;4993688;28;20042;-79
2023/07/19 10:39:13;;;;;;;2.72;1.17;;;;;;;;;;4985017;28;20082;-79
2023/07/19 10:41:39;;;;;;;4.88;1.38;;;;;;;;;;4980096;28;20034;-79
2023/07/19 10:44:05;;;;;;;4.82;1.25;;;;;;;;;;4985728;28;20480;-78
2023/07/19 10:46:31;;;;;;;5.38;2.17;;;;;;;;;;4981967;28;20446;-81
2023/07/19 10:48:58;;;;;;;9.85;2.22;;;;;;;;;;4993729;28;20058;-82
2023/07/19 10:51:24;;;;;;;4.72;1.45;;;;;;;;;;4997050;28;20042;-85
2023/07/19 10:53:57;;;;;;;4.95;1.33;;;;;;;;;;4999018;28;20010;-87
2023/07/19 10:56:23;;;;;;;3.35;0.93;;;;;;;;;;4988687;28;20030;-78
2023/07/19 10:58:49;;;;;;;3.55;1.40;;;;;;;;;;4986222;28;20089;-79
2023/07/19 11:01:18;;;;;;;4.85;1.65;;;;;;;;;;4987281;28;20038;-80
2023/07/19 11:03:47;;;;;;;3.33;1.20;;;;;;;;;;4986643;28;20579;-77
2023/07/19 11:06:14;;;;;;;3.17;1.27;;;;;;;;;;4985901;28;20396;-78
2023/07/19 11:08:40;;;;;;;4.80;1.35;;;;;;;;;;4989777;28;20029;-77
2023/07/19 11:11:07;;;;;;;4.47;1.25;;;;;;;;;;4987440;28;20034;-78
2023/07/19 11:13:34;;;;;;;2.33;1.30;;;;;;;;;;4987810;28;20502;-77
2023/07/19 11:16:03;;;;;;;3.00;1.23;;;;;;;;;;4986715;28;20522;-77
2023/07/19 11:18:30;;;;;;;3.63;0.95;;;;;;;;;;4990049;28;20444;-76
2023/07/19 11:20:59;;;;;;;7.22;1.60;;;;;;;;;;4994302;28;20049;-76
2023/07/19 11:23:29;;;;;;;3.33;1.20;;;;;;;;;;4988735;28;20473;-76
2023/07/19 11:26:05;;;;;;;4.25;0.95;;;;;;;;;;4992793;28;20071;-77
2023/07/19 11:28:35;;;;;;;2.38;1.10;;;;;;;;;;4987772;28;20043;-78
2023/07/19 11:31:02;;;;;;;3.75;0.95;;;;;;;;;;5001670;28;20181;-79
2023/07/19 11:33:29;;;;;;;5.45;1.00;;;;;;;;;;4993409;28;20469;-77
2023/07/19 11:35:55;;;;;;;4.32;1.10;;;;;;;;;;4974840;28;20031;-78
2023/07/19 11:38:21;;;;;;;6.32;1.40;;;;;;;;;;4987755;28;20034;-77
2023/07/19 11:40:48;;;;;;;2.58;0.80;;;;;;;;;;4987807;28;20039;-76
2023/07/19 11:43:14;;;;;;;3.92;0.88;;;;;;;;;;4990002;28;20034;-76
2023/07/19 11:45:40;;;;;;;2.03;1.00;;;;;;;;;;4989352;28;20041;-76
2023/07/19 11:48:06;;;;;;;3.75;1.10;;;;;;;;;;4993241;28;20053;-75
2023/07/19 11:50:33;;;;;;;3.05;0.80;;;;;;;;;;4991994;28;20089;-75
2023/07/19 11:53:01;;;;;;;6.35;0.80;;;;;;;;;;4988563;28;20034;-77
2023/07/19 11:55:27;;;;;;;1.90;0.90;;;;;;;;;;4988838;28;20041;-76
2023/07/19 11:57:55;;;;;;;2.42;0.80;;;;;;;;;;4980333;28;20082;-76
2023/07/19 12:00:22;;;;;;;3.75;1.25;;;;;;;;;;4980688;28;20038;-76
2023/07/19 12:02:49;;;;;;;2.58;0.85;;;;;;;;;;4984104;28;20066;-76
2023/07/19 12:05:19;;;;;;;5.97;1.10;;;;;;;;;;4988767;28;20038;-76
2023/07/19 12:07:46;;;;;;;4.78;1.42;;;;;;;;;;4990702;28;20039;-77
2023/07/19 12:10:12;;;;;;;3.17;1.10;;;;;;;;;;4981707;28;20035;-78
2023/07/19 12:12:39;;;;;;;6.40;0.85;;;;;;;;;;4985481;28;20716;-76
2023/07/19 12:15:06;;;;;;;3.30;1.10;;;;;;;;;;4992276;28;20054;-78
2023/07/19 12:17:33;;;;;;;1.95;1.00;;;;;;;;;;4989812;28;20048;-74
2023/07/19 12:19:59;;;;;;;5.45;1.20;;;;;;;;;;4980284;28;20687;-74
2023/07/19 12:22:28;;;;;;;1.75;0.77;;;;;;;;;;4981366;28;20034;-76
2023/07/19 12:24:55;;;;;;;3.25;0.85;;;;;;;;;;4981033;28;20038;-75
2023/07/19 12:27:21;;;;;;;3.55;1.13;;;;;;;;;;4982090;28;20145;-75
2023/07/19 12:29:47;;;;;;;1.73;0.63;;;;;;;;;;4989187;28;20528;-75
2023/07/19 12:32:14;;;;;;;2.15;0.65;;;;;;;;;;4981280;28;20234;-76
2023/07/19 12:34:41;;;;;;;3.60;1.25;;;;;;;;;;4988555;28;20030;-78
2023/07/19 12:37:07;;;;;;;3.17;0.70;;;;;;;;;;4992920;28;20038;-77
2023/07/19 12:39:33;;;;;;;1.88;0.73;;;;;;;;;;4987577;28;20019;-76
2023/07/19 12:41:59;;;;;;;1.77;0.50;;;;;;;;;;4986763;28;20154;-75
2023/07/19 12:44:25;;;;;;;6.57;0.95;;;;;;;;;;4975148;28;20085;-75
2023/07/19 12:46:51;;;;;;;4.07;0.82;;;;;;;;;;4978621;28;20035;-78
2023/07/19 12:49:21;;;;;;;2.97;0.77;;;;;;;;;;4982278;28;20026;-76
2023/07/19 12:51:48;;;;;;;2.00;0.60;;;;;;;;;;4982190;28;20294;-76
2023/07/19 12:54:15;;;;;;;4.72;0.75;;;;;;;;;;4983880;28;20031;-77
2023/07/19 12:56:41;;;;;;;1.63;0.57;;;;;;;;;;4977709;28;20093;-76
2023/07/19 12:59:09;;;;;;;2.38;0.82;;;;;;;;;;4978573;28;20070;-76
2023/07/19 13:01:37;;;;;;;3.92;0.82;;;;;;;;;;4975480;28;20802;-76
2023/07/19 13:04:03;;;;;;;3.10;0.80;;;;;;;;;;4987475;28;20035;-76
2023/07/19 13:06:29;;;;;;;2.60;0.80;;;;;;;;;;4986979;28;20043;-76
2023/07/19 13:08:56;;;;;;;2.63;1.17;;;;;;;;;;4990527;28;20464;-76
2023/07/19 13:11:22;;;;;;;2.38;0.85;;;;;;;;;;4989088;28;20038;-76
2023/07/19 13:13:48;;;;;;;2.53;1.83;;;;;;;;;;4989749;28;20026;-75
2023/07/19 13:16:14;;;;;;;5.68;0.75;;;;;;;;;;4988536;28;20065;-75
2023/07/19 13:18:40;;;;;;;3.72;0.90;;;;;;;;;;4980733;28;20419;-75
2023/07/19 13:21:06;;;;;;;2.22;0.90;;;;;;;;;;4983315;28;20058;-76
2023/07/19 13:23:33;;;;;;;2.40;0.80;;;;;;;;;;4983734;28;20030;-77
2023/07/19 13:25:59;;;;;;;1.92;0.60;;;;;;;;;;4982629;28;20746;-81
2023/07/19 13:28:25;;;;;;;4.32;0.55;;;;;;;;;;4984838;28;20037;-86
2023/07/19 13:30:51;;;;;;;2.03;0.70;;;;;;;;;;4983640;28;20034;-91
2023/07/19 13:33:20;;;;;;;1.83;0.68;;;;;;;;;;4984945;28;20030;-94
2023/07/19 13:35:46;;;;;;;2.63;0.73;;;;;;;;;;4982136;28;20100;-86
2023/07/19 13:38:12;;;;;;;1.58;0.75;;;;;;;;;;4984265;28;20352;-85
2023/07/19 13:40:39;;;;;;;1.73;0.60;;;;;;;;;;4983448;28;20023;-80
2023/07/19 13:43:05;;;;;;;2.13;0.88;;;;;;;;;;4979959;28;20034;-79
2023/07/19 13:45:33;;;;;;;4.20;0.90;;;;;;;;;;4982808;28;20027;-77
2023/07/19 13:47:59;;;;;;;6.63;0.93;;;;;;;;;;4983433;28;20479;-71
2023/07/19 13:50:25;;;;;;;1.45;0.52;;;;;;;;;;4966762;28;20026;-71
2023/07/19 13:52:53;;;;;;;1.80;0.82;;;;;;;;;;4984051;28;20049;-70
2023/07/19 13:55:19;;;;;;;4.78;0.80;;;;;;;;;;4974627;28;20077;-72
2023/07/19 13:57:45;;;;;;;2.28;0.60;;;;;;;;;;4979929;28;20030;-70
2023/07/19 14:00:11;;;;;;;1.77;0.40;;;;;;;;;;4995494;28;20341;-70
2023/07/19 14:02:38;;;;;;;1.60;0.52;;;;;;;;;;4984512;28;20046;-71
2023/07/19 14:05:05;;;;;;;5.28;0.70;;;;;;;;;;4980878;28;20027;-73
2023/07/19 14:07:31;;;;;;;5.93;1.25;;;;;;;;;;4983828;28;20499;-74
2023/07/19 14:10:01;;;;;;;3.83;1.05;;;;;;;;;;4982498;28;20022;-78
2023/07/19 14:12:27;;;;;;;2.10;1.02;;;;;;;;;;4983478;28;20467;-79
2023/07/19 14:14:55;;;;;;;2.70;0.60;;;;;;;;;;4983151;28;20463;-78
2023/07/19 14:17:25;;;;;;;1.75;0.82;;;;;;;;;;5008309;28;20029;-79
2023/07/19 14:19:51;;;;;;;1.55;0.70;;;;;;;;;;4988065;28;20034;-74
2023/07/19 14:22:17;;;;;;;5.82;0.85;;;;;;;;;;4989755;28;20031;-75
2023/07/19 14:24:43;;;;;;;1.33;0.80;;;;;;;;;;4977336;28;20041;-74
2023/07/19 14:27:09;;;;;;;4.28;0.60;;;;;;;;;;4973924;28;20086;-76
2023/07/19 14:29:35;;;;;;;2.60;0.35;;;;;;;;;;4988437;28;20038;-75
2023/07/19 14:32:03;;;;;;;1.50;0.55;;;;;;;;;;4981769;28;20373;-76
2023/07/19 14:34:30;;;;;;;2.05;0.80;;;;;;;;;;4987567;28;20038;-76
2023/07/19 14:36:57;;;;;;;3.25;0.55;;;;;;;;;;4972607;28;20023;-75